Time;durP1;ratioP1;P1;durP2;ratioP2;P2;SDS_P1;SDS_P2;PMS_P1;PMS_P2;Temp;Humidity;BMP_temperature;BMP_pressure;BME280_temperature;BME280_humidity;BME280_pressure;Samples;Min_cycle;Max_cycle;Signal;HPM_P1;HPM_P2
2023/05/16 00:00:14;;;;;;;6.20;5.60;;;;;;;-128.00;-1.00;-1.00;105701;1251;1004787;-74
2023/05/16 00:03:02;;;;;;;8.20;5.80;;;;;;;-128.00;-1.00;-1.00;105768;1251;1056221;-73
2023/05/16 00:05:28;;;;;;;7.70;5.80;;;;;;;-128.00;-1.00;-1.00;105684;1251;1003769;-73
2023/05/16 00:07:55;;;;;;;7.60;6.00;;;;;;;-128.00;-1.00;-1.00;105724;1251;1003698;-73
2023/05/16 00:10:21;;;;;;;6.60;5.90;;;;;;;-128.00;-1.00;-1.00;105724;1251;1004851;-74
2023/05/16 00:12:50;;;;;;;6.50;5.80;;;;;;;-128.00;-1.00;-1.00;105710;1251;1004235;-74
2023/05/16 00:15:19;;;;;;;6.50;5.80;;;;;;;-128.00;-1.00;-1.00;105663;1251;1054784;-74
2023/05/16 00:17:46;;;;;;;6.90;5.70;;;;;;;-128.00;-1.00;-1.00;105690;1251;1059911;-73
2023/05/16 00:20:13;;;;;;;6.50;5.90;;;;;;;-128.00;-1.00;-1.00;105696;1251;1004155;-73
2023/05/16 00:22:40;;;;;;;5.30;4.80;;;;;;;-128.00;-1.00;-1.00;105733;1251;1003695;-73
2023/05/16 00:25:08;;;;;;;6.10;5.20;;;;;;;-128.00;-1.00;-1.00;105730;1251;1004050;-73
2023/05/16 00:27:35;;;;;;;5.70;5.10;;;;;;;-128.00;-1.00;-1.00;105717;1251;1004324;-74
2023/05/16 00:30:03;;;;;;;6.00;5.50;;;;;;;-128.00;-1.00;-1.00;105655;1251;1004410;-73
2023/05/16 00:32:30;;;;;;;6.10;5.50;;;;;;;-128.00;-1.00;-1.00;105654;1251;1003763;-73
2023/05/16 00:34:56;;;;;;;7.30;6.20;;;;;;;-128.00;-1.00;-1.00;105667;1251;1005104;-74
2023/05/16 00:37:23;;;;;;;7.20;6.50;;;;;;;-128.00;-1.00;-1.00;105793;1251;1004338;-73
2023/05/16 00:39:49;;;;;;;6.60;5.70;;;;;;;-128.00;-1.00;-1.00;105724;1251;1004361;-74
2023/05/16 00:42:19;;;;;;;7.10;6.20;;;;;;;-128.00;-1.00;-1.00;105738;1251;1004637;-74
2023/05/16 00:44:49;;;;;;;7.30;6.70;;;;;;;-128.00;-1.00;-1.00;105710;1251;1046183;-75
2023/05/16 00:47:15;;;;;;;7.20;6.60;;;;;;;-128.00;-1.00;-1.00;105700;1251;1047020;-74
2023/05/16 00:49:42;;;;;;;8.10;7.30;;;;;;;-128.00;-1.00;-1.00;105734;1251;1004136;-74
2023/05/16 00:52:09;;;;;;;8.40;7.60;;;;;;;-128.00;-1.00;-1.00;105737;1251;1003743;-74
2023/05/16 00:54:35;;;;;;;7.90;7.10;;;;;;;-128.00;-1.00;-1.00;105660;1251;1003922;-74
2023/05/16 00:57:03;;;;;;;8.20;7.50;;;;;;;-128.00;-1.00;-1.00;105722;1251;1004477;-74
2023/05/16 00:59:30;;;;;;;9.30;8.00;;;;;;;-128.00;-1.00;-1.00;105724;1251;1003750;-74
2023/05/16 01:01:56;;;;;;;12.10;8.00;;;;;;;-128.00;-1.00;-1.00;105762;1251;1004414;-73
2023/05/16 01:04:23;;;;;;;9.50;8.60;;;;;;;-128.00;-1.00;-1.00;105702;1251;1004881;-73
2023/05/16 01:06:50;;;;;;;8.10;7.40;;;;;;;-128.00;-1.00;-1.00;105645;1251;1004032;-73
2023/05/16 01:09:18;;;;;;;10.10;8.90;;;;;;;-128.00;-1.00;-1.00;105691;1251;1004862;-73
2023/05/16 01:11:52;;;;;;;8.60;7.80;;;;;;;-128.00;-1.00;-1.00;105688;1251;1004002;-73
2023/05/16 01:14:45;;;;;;;9.30;8.40;;;;;;;-128.00;-1.00;-1.00;105806;1251;1061267;-74
2023/05/16 01:17:12;;;;;;;9.50;8.70;;;;;;;-128.00;-1.00;-1.00;105196;1259;1055775;-73
2023/05/16 01:19:56;;;;;;;8.80;8.00;;;;;;;-128.00;-1.00;-1.00;105122;1260;1005018;-73
2023/05/16 01:22:47;;;;;;;9.00;8.20;;;;;;;-128.00;-1.00;-1.00;105167;1259;1044705;-73
2023/05/16 01:25:42;;;;;;;9.00;8.10;;;;;;;-128.00;-1.00;-1.00;105166;1259;1046890;-73
2023/05/16 01:28:09;;;;;;;8.70;7.90;;;;;;;-128.00;-1.00;-1.00;105175;1259;1061935;-73
2023/05/16 01:30:39;;;;;;;9.10;8.30;;;;;;;-128.00;-1.00;-1.00;105173;1259;1004148;-75
2023/05/16 01:33:06;;;;;;;8.80;8.00;;;;;;;-128.00;-1.00;-1.00;105096;1258;1058664;-73
2023/05/16 01:35:38;;;;;;;8.60;7.60;;;;;;;-128.00;-1.00;-1.00;105028;1259;1004679;-73
2023/05/16 01:38:16;;;;;;;9.20;8.40;;;;;;;-128.00;-1.00;-1.00;105152;1259;1047055;-73
2023/05/16 01:41:06;;;;;;;9.70;8.30;;;;;;;-128.00;-1.00;-1.00;105120;1260;1060828;-74
2023/05/16 01:43:41;;;;;;;9.20;8.30;;;;;;;-128.00;-1.00;-1.00;105186;1259;1055371;-73
2023/05/16 01:46:23;;;;;;;9.70;8.00;;;;;;;-128.00;-1.00;-1.00;105150;1258;1059817;-73
2023/05/16 01:48:57;;;;;;;9.50;8.50;;;;;;;-128.00;-1.00;-1.00;105142;1258;1045237;-74
2023/05/16 01:51:29;;;;;;;9.90;8.90;;;;;;;-128.00;-1.00;-1.00;105134;1259;1047283;-73
2023/05/16 01:54:02;;;;;;;9.80;8.80;;;;;;;-128.00;-1.00;-1.00;105373;1251;1062004;-73
2023/05/16 01:56:29;;;;;;;9.80;8.90;;;;;;;-128.00;-1.00;-1.00;105741;1251;1056563;-73
2023/05/16 01:58:57;;;;;;;9.50;8.60;;;;;;;-128.00;-1.00;-1.00;105720;1251;1005001;-74
2023/05/16 02:01:24;;;;;;;8.80;8.00;;;;;;;-128.00;-1.00;-1.00;105682;1251;1046875;-74
2023/05/16 02:03:51;;;;;;;9.00;8.10;;;;;;;-128.00;-1.00;-1.00;105697;1251;1004052;-74
2023/05/16 02:06:17;;;;;;;8.40;7.60;;;;;;;-128.00;-1.00;-1.00;105564;1251;1003917;-73
2023/05/16 02:08:44;;;;;;;8.80;8.10;;;;;;;-128.00;-1.00;-1.00;105720;1251;1003787;-73
2023/05/16 02:11:10;;;;;;;8.30;7.50;;;;;;;-128.00;-1.00;-1.00;105706;1251;1004780;-74
2023/05/16 02:13:37;;;;;;;9.60;8.10;;;;;;;-128.00;-1.00;-1.00;105647;1252;1004538;-74
2023/05/16 02:16:04;;;;;;;9.10;8.30;;;;;;;-128.00;-1.00;-1.00;105677;1252;1004027;-74
2023/05/16 02:18:30;;;;;;;8.80;8.00;;;;;;;-128.00;-1.00;-1.00;105520;1252;1003410;-74
2023/05/16 02:20:57;;;;;;;9.80;8.70;;;;;;;-128.00;-1.00;-1.00;105648;1252;1005235;-74
2023/05/16 02:23:23;;;;;;;10.60;9.60;;;;;;;-128.00;-1.00;-1.00;105598;1253;1004704;-74
2023/05/16 02:25:50;;;;;;;10.00;9.00;;;;;;;-128.00;-1.00;-1.00;105657;1252;1003912;-74
2023/05/16 02:28:16;;;;;;;10.70;9.60;;;;;;;-128.00;-1.00;-1.00;105633;1253;1004362;-74
2023/05/16 02:30:43;;;;;;;10.20;9.30;;;;;;;-128.00;-1.00;-1.00;105624;1252;1003861;-74
2023/05/16 02:33:10;;;;;;;10.00;9.20;;;;;;;-128.00;-1.00;-1.00;105644;1253;1003570;-74
2023/05/16 02:35:36;;;;;;;10.50;9.30;;;;;;;-128.00;-1.00;-1.00;105601;1252;1003853;-74
2023/05/16 02:38:03;;;;;;;10.80;9.70;;;;;;;-128.00;-1.00;-1.00;105619;1252;1004945;-74
2023/05/16 02:40:29;;;;;;;10.50;9.60;;;;;;;-128.00;-1.00;-1.00;105646;1253;1004941;-74
2023/05/16 02:42:56;;;;;;;10.30;9.40;;;;;;;-128.00;-1.00;-1.00;105636;1252;1004186;-74
2023/05/16 02:45:22;;;;;;;12.40;10.20;;;;;;;-128.00;-1.00;-1.00;105609;1252;1004027;-73
2023/05/16 02:47:49;;;;;;;11.10;10.10;;;;;;;-128.00;-1.00;-1.00;105616;1252;1004639;-74
2023/05/16 02:50:15;;;;;;;11.20;10.00;;;;;;;-128.00;-1.00;-1.00;105581;1254;1003925;-74
2023/05/16 02:52:42;;;;;;;12.40;11.00;;;;;;;-128.00;-1.00;-1.00;105620;1252;1004189;-73
2023/05/16 02:55:09;;;;;;;11.30;10.30;;;;;;;-128.00;-1.00;-1.00;105596;1252;1003911;-73
2023/05/16 02:57:35;;;;;;;12.00;10.70;;;;;;;-128.00;-1.00;-1.00;105639;1252;1005197;-74
2023/05/16 03:00:04;;;;;;;11.00;10.00;;;;;;;-128.00;-1.00;-1.00;105610;1252;1003647;-73
2023/05/16 03:02:31;;;;;;;11.00;10.00;;;;;;;-128.00;-1.00;-1.00;105498;1252;1045073;-73
2023/05/16 03:04:58;;;;;;;10.80;9.70;;;;;;;-128.00;-1.00;-1.00;105520;1253;1003262;-73
2023/05/16 03:07:24;;;;;;;10.50;9.60;;;;;;;-128.00;-1.00;-1.00;105635;1252;1004404;-73
2023/05/16 03:09:51;;;;;;;11.10;10.00;;;;;;;-128.00;-1.00;-1.00;105639;1254;1004355;-73
2023/05/16 03:12:17;;;;;;;10.90;9.80;;;;;;;-128.00;-1.00;-1.00;105516;1252;1003755;-73
2023/05/16 03:14:44;;;;;;;11.40;9.90;;;;;;;-128.00;-1.00;-1.00;105510;1251;1003392;-73
2023/05/16 03:17:11;;;;;;;11.10;10.10;;;;;;;-128.00;-1.00;-1.00;105632;1253;1004439;-73
2023/05/16 03:19:37;;;;;;;13.10;11.90;;;;;;;-128.00;-1.00;-1.00;105670;1252;1004212;-73
2023/05/16 03:22:04;;;;;;;12.90;11.60;;;;;;;-128.00;-1.00;-1.00;105701;1252;1004629;-73
2023/05/16 03:24:30;;;;;;;14.10;12.70;;;;;;;-128.00;-1.00;-1.00;105663;1252;1003491;-73
2023/05/16 03:26:58;;;;;;;14.00;12.60;;;;;;;-128.00;-1.00;-1.00;105357;1253;1003938;-73
2023/05/16 03:29:25;;;;;;;13.30;12.00;;;;;;;-128.00;-1.00;-1.00;105740;1252;1004192;-73
2023/05/16 03:31:52;;;;;;;12.80;11.70;;;;;;;-128.00;-1.00;-1.00;105686;1252;1003943;-73
2023/05/16 03:34:19;;;;;;;12.30;11.30;;;;;;;-128.00;-1.00;-1.00;105666;1252;1004449;-73
2023/05/16 03:36:47;;;;;;;10.30;9.40;;;;;;;-128.00;-1.00;-1.00;105645;1252;1004125;-73
2023/05/16 03:39:15;;;;;;;10.40;9.30;;;;;;;-128.00;-1.00;-1.00;105684;1252;1045299;-74
2023/05/16 03:41:42;;;;;;;10.30;9.30;;;;;;;-128.00;-1.00;-1.00;105665;1252;1004454;-73
2023/05/16 03:44:09;;;;;;;9.60;8.60;;;;;;;-128.00;-1.00;-1.00;105719;1252;1004721;-74
2023/05/16 03:46:35;;;;;;;9.40;8.60;;;;;;;-128.00;-1.00;-1.00;105684;1252;1003917;-73
2023/05/16 03:49:02;;;;;;;9.00;8.20;;;;;;;-128.00;-1.00;-1.00;105670;1252;1004720;-74
2023/05/16 03:51:29;;;;;;;8.90;8.10;;;;;;;-128.00;-1.00;-1.00;105711;1252;1004134;-73
2023/05/16 03:53:56;;;;;;;9.30;8.40;;;;;;;-128.00;-1.00;-1.00;105671;1252;1004367;-74
2023/05/16 03:56:23;;;;;;;9.00;8.20;;;;;;;-128.00;-1.00;-1.00;105689;1252;1004395;-74
2023/05/16 03:58:49;;;;;;;8.60;7.90;;;;;;;-128.00;-1.00;-1.00;105687;1252;1003643;-73
2023/05/16 04:01:16;;;;;;;8.50;7.70;;;;;;;-128.00;-1.00;-1.00;105667;1251;1004264;-74
2023/05/16 04:03:43;;;;;;;7.30;6.70;;;;;;;-128.00;-1.00;-1.00;105672;1252;1005045;-74
2023/05/16 04:06:09;;;;;;;7.70;7.00;;;;;;;-128.00;-1.00;-1.00;105512;1253;1004097;-74
2023/05/16 04:08:38;;;;;;;7.50;6.90;;;;;;;-128.00;-1.00;-1.00;105552;1252;1004750;-74
2023/05/16 04:11:05;;;;;;;8.00;7.30;;;;;;;-128.00;-1.00;-1.00;105638;1252;1055615;-74
2023/05/16 04:13:31;;;;;;;8.00;7.20;;;;;;;-128.00;-1.00;-1.00;105618;1252;1004111;-73
2023/05/16 04:15:58;;;;;;;7.40;6.70;;;;;;;-128.00;-1.00;-1.00;105573;1253;1003843;-73
2023/05/16 04:18:24;;;;;;;8.70;7.80;;;;;;;-128.00;-1.00;-1.00;105711;1252;1004633;-73
2023/05/16 04:20:51;;;;;;;9.40;8.60;;;;;;;-128.00;-1.00;-1.00;105537;1252;1004078;-73
2023/05/16 04:23:17;;;;;;;8.00;7.40;;;;;;;-128.00;-1.00;-1.00;105703;1252;1003669;-73
2023/05/16 04:25:44;;;;;;;7.80;7.10;;;;;;;-128.00;-1.00;-1.00;105676;1252;1004944;-73
2023/05/16 04:28:11;;;;;;;8.20;7.20;;;;;;;-128.00;-1.00;-1.00;105684;1252;1003847;-73
2023/05/16 04:30:37;;;;;;;8.60;7.90;;;;;;;-128.00;-1.00;-1.00;105671;1252;1004071;-73
2023/05/16 04:33:04;;;;;;;8.00;7.30;;;;;;;-128.00;-1.00;-1.00;105699;1252;1003861;-73
2023/05/16 04:35:32;;;;;;;7.60;7.00;;;;;;;-128.00;-1.00;-1.00;105685;1252;1003523;-74
2023/05/16 04:37:58;;;;;;;8.60;7.20;;;;;;;-128.00;-1.00;-1.00;105674;1252;1004355;-74
2023/05/16 04:40:26;;;;;;;9.30;7.20;;;;;;;-128.00;-1.00;-1.00;105523;1253;1004698;-73
2023/05/16 04:42:54;;;;;;;7.80;7.00;;;;;;;-128.00;-1.00;-1.00;105686;1252;1003880;-74
2023/05/16 04:45:20;;;;;;;7.70;6.90;;;;;;;-128.00;-1.00;-1.00;105712;1252;1003599;-75
2023/05/16 04:47:47;;;;;;;6.80;6.20;;;;;;;-128.00;-1.00;-1.00;105669;1253;1003838;-74
2023/05/16 04:50:14;;;;;;;6.90;6.20;;;;;;;-128.00;-1.00;-1.00;105674;1252;1004202;-74
2023/05/16 04:52:41;;;;;;;8.10;6.70;;;;;;;-128.00;-1.00;-1.00;105358;1252;1005471;-74
2023/05/16 04:55:08;;;;;;;8.40;6.70;;;;;;;-128.00;-1.00;-1.00;105715;1252;1004428;-74
2023/05/16 04:57:35;;;;;;;8.60;6.10;;;;;;;-128.00;-1.00;-1.00;105545;1253;1004149;-75
2023/05/16 05:00:04;;;;;;;7.00;6.30;;;;;;;-128.00;-1.00;-1.00;105709;1252;1004464;-73
2023/05/16 05:02:31;;;;;;;8.90;6.40;;;;;;;-128.00;-1.00;-1.00;105531;1252;1059503;-73
2023/05/16 05:04:57;;;;;;;8.10;6.70;;;;;;;-128.00;-1.00;-1.00;105661;1252;1003740;-73
2023/05/16 05:07:27;;;;;;;7.30;6.10;;;;;;;-128.00;-1.00;-1.00;105720;1251;1004761;-74
2023/05/16 05:09:54;;;;;;;6.60;5.90;;;;;;;-128.00;-1.00;-1.00;105722;1252;1061881;-74
2023/05/16 05:12:21;;;;;;;7.40;6.10;;;;;;;-128.00;-1.00;-1.00;105689;1252;1004548;-74
2023/05/16 05:14:48;;;;;;;9.60;5.80;;;;;;;-128.00;-1.00;-1.00;105711;1251;1004880;-74
2023/05/16 05:17:16;;;;;;;7.20;6.60;;;;;;;-128.00;-1.00;-1.00;105722;1251;1004178;-74
2023/05/16 05:19:43;;;;;;;6.30;5.70;;;;;;;-128.00;-1.00;-1.00;105679;1251;1004178;-74
2023/05/16 05:22:10;;;;;;;7.40;6.60;;;;;;;-128.00;-1.00;-1.00;105400;1251;1004482;-74
2023/05/16 05:24:36;;;;;;;6.90;6.20;;;;;;;-128.00;-1.00;-1.00;105769;1251;1004059;-73
2023/05/16 05:27:03;;;;;;;6.40;5.80;;;;;;;-128.00;-1.00;-1.00;105714;1251;1003878;-73
2023/05/16 05:29:29;;;;;;;6.70;6.10;;;;;;;-128.00;-1.00;-1.00;105704;1251;1003483;-73
2023/05/16 05:31:56;;;;;;;7.10;6.40;;;;;;;-128.00;-1.00;-1.00;105546;1251;1003963;-75
2023/05/16 05:34:22;;;;;;;12.30;8.70;;;;;;;-128.00;-1.00;-1.00;105756;1251;1005751;-73
2023/05/16 05:36:49;;;;;;;9.60;8.70;;;;;;;-128.00;-1.00;-1.00;105530;1251;1003997;-73
2023/05/16 05:39:16;;;;;;;9.80;8.90;;;;;;;-128.00;-1.00;-1.00;105711;1251;1005265;-73
2023/05/16 05:41:42;;;;;;;10.20;9.30;;;;;;;-128.00;-1.00;-1.00;105730;1251;1004715;-73
2023/05/16 05:44:09;;;;;;;9.60;8.80;;;;;;;-128.00;-1.00;-1.00;105770;1251;1004000;-74
2023/05/16 05:46:36;;;;;;;7.40;6.70;;;;;;;-128.00;-1.00;-1.00;105749;1251;1003827;-74
2023/05/16 05:49:03;;;;;;;8.00;6.60;;;;;;;-128.00;-1.00;-1.00;105733;1251;1004107;-73
2023/05/16 05:51:30;;;;;;;6.30;5.20;;;;;;;-128.00;-1.00;-1.00;105716;1251;1003940;-75
2023/05/16 05:53:56;;;;;;;5.60;4.90;;;;;;;-128.00;-1.00;-1.00;105729;1251;1004022;-74
2023/05/16 05:56:23;;;;;;;6.10;4.80;;;;;;;-128.00;-1.00;-1.00;105648;1251;1005044;-75
2023/05/16 05:58:50;;;;;;;5.20;4.30;;;;;;;-128.00;-1.00;-1.00;105749;1251;1003531;-74
2023/05/16 06:01:17;;;;;;;4.20;3.70;;;;;;;-128.00;-1.00;-1.00;105696;1251;1004935;-74
2023/05/16 06:03:43;;;;;;;6.10;3.90;;;;;;;-128.00;-1.00;-1.00;105744;1251;1003709;-74
2023/05/16 06:06:10;;;;;;;4.50;3.80;;;;;;;-128.00;-1.00;-1.00;105678;1251;1004758;-74
2023/05/16 06:08:36;;;;;;;5.30;4.20;;;;;;;-128.00;-1.00;-1.00;105755;1251;1003945;-73
2023/05/16 06:11:03;;;;;;;5.70;4.00;;;;;;;-128.00;-1.00;-1.00;105725;1251;1005711;-73
2023/05/16 06:13:29;;;;;;;5.30;4.40;;;;;;;-128.00;-1.00;-1.00;105736;1251;1005067;-73
2023/05/16 06:15:56;;;;;;;4.90;4.10;;;;;;;-128.00;-1.00;-1.00;105497;1251;1004580;-73
2023/05/16 06:18:22;;;;;;;4.60;4.20;;;;;;;-128.00;-1.00;-1.00;105786;1251;1003946;-73
2023/05/16 06:20:49;;;;;;;5.50;5.00;;;;;;;-128.00;-1.00;-1.00;105765;1251;1004438;-73
2023/05/16 06:23:15;;;;;;;7.90;7.20;;;;;;;-128.00;-1.00;-1.00;105744;1251;1005085;-73
2023/05/16 06:25:42;;;;;;;5.30;4.80;;;;;;;-128.00;-1.00;-1.00;105557;1251;1004747;-73
2023/05/16 06:28:08;;;;;;;4.50;4.10;;;;;;;-128.00;-1.00;-1.00;105703;1251;1003775;-73
2023/05/16 06:30:50;;;;;;;4.40;4.00;;;;;;;-128.00;-1.00;-1.00;105682;1251;1044150;-73
2023/05/16 06:33:17;;;;;;;4.30;3.80;;;;;;;-128.00;-1.00;-1.00;105508;1251;1005708;-73
2023/05/16 06:35:44;;;;;;;4.40;4.00;;;;;;;-128.00;-1.00;-1.00;105761;1251;1004743;-73
2023/05/16 06:38:11;;;;;;;4.70;4.30;;;;;;;-128.00;-1.00;-1.00;105779;1251;1003490;-73
2023/05/16 06:40:37;;;;;;;5.70;3.80;;;;;;;-128.00;-1.00;-1.00;105770;1251;1004096;-73
2023/05/16 06:43:04;;;;;;;4.10;3.70;;;;;;;-128.00;-1.00;-1.00;105722;1251;1003977;-73
2023/05/16 06:45:30;;;;;;;5.10;4.50;;;;;;;-128.00;-1.00;-1.00;105745;1251;1004978;-73
2023/05/16 06:47:57;;;;;;;5.00;4.10;;;;;;;-128.00;-1.00;-1.00;105680;1251;1004976;-73
2023/05/16 06:50:23;;;;;;;5.10;3.90;;;;;;;-128.00;-1.00;-1.00;105781;1251;1004216;-74
2023/05/16 06:52:50;;;;;;;4.90;4.30;;;;;;;-128.00;-1.00;-1.00;105730;1251;1003994;-73
2023/05/16 06:55:16;;;;;;;5.90;4.70;;;;;;;-128.00;-1.00;-1.00;105704;1251;1004151;-73
2023/05/16 06:57:43;;;;;;;4.80;4.00;;;;;;;-128.00;-1.00;-1.00;105710;1251;1003969;-74
2023/05/16 07:00:30;;;;;;;5.20;4.20;;;;;;;-128.00;-1.00;-1.00;105758;1251;1003812;-73
2023/05/16 07:02:56;;;;;;;4.40;3.70;;;;;;;-128.00;-1.00;-1.00;105384;1255;1056245;-73
2023/05/16 07:05:22;;;;;;;4.80;4.30;;;;;;;-128.00;-1.00;-1.00;105335;1255;1004606;-73
2023/05/16 07:07:49;;;;;;;4.20;3.80;;;;;;;-128.00;-1.00;-1.00;105334;1255;1004222;-73
2023/05/16 07:10:16;;;;;;;4.70;4.00;;;;;;;-128.00;-1.00;-1.00;105334;1255;1004659;-73
2023/05/16 07:12:42;;;;;;;5.10;4.60;;;;;;;-128.00;-1.00;-1.00;105355;1255;1003620;-73
2023/05/16 07:15:09;;;;;;;5.00;4.20;;;;;;;-128.00;-1.00;-1.00;105347;1255;1004633;-73
2023/05/16 07:17:36;;;;;;;4.60;4.00;;;;;;;-128.00;-1.00;-1.00;105333;1255;1003997;-72
2023/05/16 07:20:03;;;;;;;5.10;4.40;;;;;;;-128.00;-1.00;-1.00;105329;1255;1004248;-73
2023/05/16 07:22:30;;;;;;;4.10;3.80;;;;;;;-128.00;-1.00;-1.00;105323;1255;1003897;-73
2023/05/16 07:24:59;;;;;;;5.80;4.40;;;;;;;-128.00;-1.00;-1.00;105268;1255;1004668;-73
2023/05/16 07:27:27;;;;;;;5.20;4.60;;;;;;;-128.00;-1.00;-1.00;105299;1255;1055815;-73
2023/05/16 07:29:53;;;;;;;4.80;4.10;;;;;;;-128.00;-1.00;-1.00;105180;1255;1004433;-73
2023/05/16 07:32:20;;;;;;;5.60;4.50;;;;;;;-128.00;-1.00;-1.00;105209;1255;1004025;-73
2023/05/16 07:34:46;;;;;;;4.90;4.60;;;;;;;-128.00;-1.00;-1.00;105334;1255;1003971;-73
2023/05/16 07:37:14;;;;;;;4.80;4.40;;;;;;;-128.00;-1.00;-1.00;105366;1255;1004274;-73
2023/05/16 07:39:41;;;;;;;5.80;4.80;;;;;;;-128.00;-1.00;-1.00;105344;1255;1006022;-73
2023/05/16 07:42:08;;;;;;;5.30;4.90;;;;;;;-128.00;-1.00;-1.00;105336;1255;1003829;-74
2023/05/16 07:44:34;;;;;;;5.40;5.00;;;;;;;-128.00;-1.00;-1.00;105361;1255;1004688;-75
2023/05/16 07:47:01;;;;;;;9.10;4.80;;;;;;;-128.00;-1.00;-1.00;105482;1251;1005065;-73
2023/05/16 07:49:28;;;;;;;4.90;4.50;;;;;;;-128.00;-1.00;-1.00;105774;1251;1004666;-73
2023/05/16 07:51:54;;;;;;;5.30;4.90;;;;;;;-128.00;-1.00;-1.00;105780;1251;1004271;-73
2023/05/16 07:54:21;;;;;;;5.00;4.60;;;;;;;-128.00;-1.00;-1.00;105720;1251;1005189;-73
2023/05/16 07:56:47;;;;;;;5.30;4.80;;;;;;;-128.00;-1.00;-1.00;105758;1251;1004679;-74
2023/05/16 07:59:14;;;;;;;4.80;4.40;;;;;;;-128.00;-1.00;-1.00;105723;1251;1004488;-73
2023/05/16 08:01:41;;;;;;;5.20;4.70;;;;;;;-128.00;-1.00;-1.00;105758;1251;1003991;-73
2023/05/16 08:04:07;;;;;;;5.40;4.90;;;;;;;-128.00;-1.00;-1.00;105734;1251;1005160;-74
2023/05/16 08:06:34;;;;;;;6.00;5.00;;;;;;;-128.00;-1.00;-1.00;105579;1251;1003660;-73
2023/05/16 08:09:00;;;;;;;5.30;4.90;;;;;;;-128.00;-1.00;-1.00;105765;1251;1003306;-74
2023/05/16 08:11:27;;;;;;;5.20;4.80;;;;;;;-128.00;-1.00;-1.00;105710;1251;1003989;-73
2023/05/16 08:13:54;;;;;;;5.40;5.00;;;;;;;-128.00;-1.00;-1.00;105736;1251;1003303;-73
2023/05/16 08:16:20;;;;;;;5.10;4.60;;;;;;;-128.00;-1.00;-1.00;105746;1251;1003986;-74
2023/05/16 08:18:47;;;;;;;6.40;5.80;;;;;;;-128.00;-1.00;-1.00;105737;1251;1004947;-73
2023/05/16 08:21:15;;;;;;;5.60;5.10;;;;;;;-128.00;-1.00;-1.00;105739;1251;1004118;-73
2023/05/16 08:23:42;;;;;;;5.50;5.00;;;;;;;-128.00;-1.00;-1.00;105767;1251;1005168;-73
2023/05/16 08:26:09;;;;;;;5.50;4.90;;;;;;;-128.00;-1.00;-1.00;105761;1251;1005184;-74
2023/05/16 08:28:35;;;;;;;5.70;5.20;;;;;;;-128.00;-1.00;-1.00;105702;1253;1004286;-73
2023/05/16 08:31:02;;;;;;;5.80;5.00;;;;;;;-128.00;-1.00;-1.00;105508;1251;1003939;-73
2023/05/16 08:33:28;;;;;;;5.40;5.00;;;;;;;-128.00;-1.00;-1.00;105768;1251;1005501;-73
2023/05/16 08:35:55;;;;;;;5.40;4.90;;;;;;;-128.00;-1.00;-1.00;105740;1251;1004540;-73
2023/05/16 08:38:22;;;;;;;5.50;5.00;;;;;;;-128.00;-1.00;-1.00;105787;1251;1004895;-73
2023/05/16 08:40:48;;;;;;;6.60;6.00;;;;;;;-128.00;-1.00;-1.00;105758;1251;1003532;-73
2023/05/16 08:43:15;;;;;;;6.60;6.00;;;;;;;-128.00;-1.00;-1.00;105782;1251;1003888;-74
2023/05/16 08:45:42;;;;;;;6.20;5.50;;;;;;;-128.00;-1.00;-1.00;105743;1251;1004394;-74
2023/05/16 08:48:10;;;;;;;7.30;5.40;;;;;;;-128.00;-1.00;-1.00;105774;1251;1003693;-74
2023/05/16 08:50:37;;;;;;;5.80;5.20;;;;;;;-128.00;-1.00;-1.00;105817;1251;1004030;-73
2023/05/16 08:53:06;;;;;;;5.50;5.10;;;;;;;-128.00;-1.00;-1.00;105704;1251;1004275;-75
2023/05/16 08:55:34;;;;;;;;;;;;;;;-128.00;-1.00;-1.00;105731;1251;1059856;-74
2023/05/16 08:58:02;;;;;;;5.40;4.90;;;;;;;-128.00;-1.00;-1.00;105744;1251;1004718;-73
2023/05/16 09:00:30;;;;;;;5.70;5.10;;;;;;;-128.00;-1.00;-1.00;105787;1251;1005115;-73
2023/05/16 09:02:56;;;;;;;5.70;5.10;;;;;;;-128.00;-1.00;-1.00;105782;1251;1004326;-74
2023/05/16 09:05:24;;;;;;;5.00;4.50;;;;;;;-128.00;-1.00;-1.00;105752;1251;1004162;-74
2023/05/16 09:07:51;;;;;;;5.30;4.80;;;;;;;-128.00;-1.00;-1.00;105766;1251;1004488;-74
2023/05/16 09:10:17;;;;;;;5.60;4.60;;;;;;;-128.00;-1.00;-1.00;105759;1251;1004231;-74
2023/05/16 09:12:44;;;;;;;4.80;4.40;;;;;;;-128.00;-1.00;-1.00;105784;1251;1005420;-74
2023/05/16 09:15:11;;;;;;;4.70;4.40;;;;;;;-128.00;-1.00;-1.00;105778;1251;1005000;-74
2023/05/16 09:17:41;;;;;;;5.40;4.90;;;;;;;-128.00;-1.00;-1.00;105785;1251;1004004;-74
2023/05/16 09:20:12;;;;;;;6.00;5.20;;;;;;;-128.00;-1.00;-1.00;105749;1251;1059560;-73
2023/05/16 09:22:40;;;;;;;4.90;4.40;;;;;;;-128.00;-1.00;-1.00;105778;1255;1045301;-74
2023/05/16 09:25:07;;;;;;;5.70;5.20;;;;;;;-128.00;-1.00;-1.00;105715;1251;1005036;-73
2023/05/16 09:27:33;;;;;;;4.80;4.50;;;;;;;-128.00;-1.00;-1.00;105776;1251;1004407;-73
2023/05/16 09:30:00;;;;;;;5.90;5.10;;;;;;;-128.00;-1.00;-1.00;105734;1251;1004139;-73
2023/05/16 09:32:26;;;;;;;5.30;4.90;;;;;;;-128.00;-1.00;-1.00;105753;1251;1004245;-73
2023/05/16 09:34:55;;;;;;;5.70;5.30;;;;;;;-128.00;-1.00;-1.00;105702;1251;1003952;-73
2023/05/16 09:37:22;;;;;;;5.60;5.20;;;;;;;-128.00;-1.00;-1.00;105755;1251;1048065;-73
2023/05/16 09:39:53;;;;;;;5.90;5.50;;;;;;;-128.00;-1.00;-1.00;105689;1253;1005037;-73
2023/05/16 09:42:21;;;;;;;5.60;5.10;;;;;;;-128.00;-1.00;-1.00;105762;1251;1056178;-73
2023/05/16 09:44:50;;;;;;;6.20;5.60;;;;;;;-128.00;-1.00;-1.00;105724;1251;1004519;-74
2023/05/16 09:47:17;;;;;;;6.00;5.20;;;;;;;-128.00;-1.00;-1.00;105748;1251;1044713;-74
2023/05/16 09:49:45;;;;;;;7.60;6.80;;;;;;;-128.00;-1.00;-1.00;105503;1251;1003785;-74
2023/05/16 09:52:13;;;;;;;5.90;5.40;;;;;;;-128.00;-1.00;-1.00;105781;1251;1003584;-74
2023/05/16 09:54:40;;;;;;;5.80;5.50;;;;;;;-128.00;-1.00;-1.00;105728;1251;1003369;-74
2023/05/16 09:57:06;;;;;;;5.60;5.20;;;;;;;-128.00;-1.00;-1.00;105750;1251;1004217;-74
2023/05/16 09:59:37;;;;;;;5.70;5.10;;;;;;;-128.00;-1.00;-1.00;105539;1252;1004557;-73
2023/05/16 10:02:06;;;;;;;6.60;6.00;;;;;;;-128.00;-1.00;-1.00;105626;1251;1046753;-73
2023/05/16 10:04:34;;;;;;;6.40;5.70;;;;;;;-128.00;-1.00;-1.00;105743;1251;1061465;-74
2023/05/16 10:07:05;;;;;;;9.60;5.50;;;;;;;-128.00;-1.00;-1.00;105809;1251;1004502;-73
2023/05/16 10:09:32;;;;;;;5.90;5.40;;;;;;;-128.00;-1.00;-1.00;105769;1251;1060900;-73
2023/05/16 10:12:07;;;;;;;6.30;5.80;;;;;;;-128.00;-1.00;-1.00;105696;1252;1004013;-73
2023/05/16 10:14:37;;;;;;;7.70;7.10;;;;;;;-128.00;-1.00;-1.00;105752;1252;1046659;-74
2023/05/16 10:17:06;;;;;;;10.00;7.40;;;;;;;-128.00;-1.00;-1.00;105742;1251;1062269;-74
2023/05/16 10:19:37;;;;;;;8.10;7.50;;;;;;;-128.00;-1.00;-1.00;105788;1251;1055291;-73
2023/05/16 10:22:06;;;;;;;8.70;7.30;;;;;;;-128.00;-1.00;-1.00;105761;1251;1058984;-74
2023/05/16 10:24:47;;;;;;;5.70;4.80;;;;;;;-128.00;-1.00;-1.00;105753;1251;1045565;-74
2023/05/16 10:27:14;;;;;;;3.80;3.50;;;;;;;-128.00;-1.00;-1.00;105761;1251;1047289;-74
2023/05/16 10:29:43;;;;;;;4.40;3.80;;;;;;;-128.00;-1.00;-1.00;105725;1251;1004716;-73
2023/05/16 10:32:11;;;;;;;5.10;4.60;;;;;;;-128.00;-1.00;-1.00;105738;1251;1055911;-73
2023/05/16 10:34:39;;;;;;;5.30;4.80;;;;;;;-128.00;-1.00;-1.00;105737;1251;1003878;-74
2023/05/16 10:37:06;;;;;;;5.50;5.00;;;;;;;-128.00;-1.00;-1.00;105790;1251;1003683;-73
2023/05/16 10:39:33;;;;;;;6.00;5.50;;;;;;;-128.00;-1.00;-1.00;105795;1251;1004497;-74
2023/05/16 10:42:00;;;;;;;7.00;5.40;;;;;;;-128.00;-1.00;-1.00;105791;1251;1004354;-74
2023/05/16 10:44:31;;;;;;;5.20;4.80;;;;;;;-128.00;-1.00;-1.00;105751;1251;1003722;-74
2023/05/16 10:46:59;;;;;;;5.90;5.10;;;;;;;-128.00;-1.00;-1.00;105782;1251;1060413;-74
2023/05/16 10:49:26;;;;;;;6.70;4.50;;;;;;;-128.00;-1.00;-1.00;105754;1251;1003812;-73
2023/05/16 10:52:06;;;;;;;4.90;4.50;;;;;;;-128.00;-1.00;-1.00;105787;1251;1003392;-73
2023/05/16 10:54:41;;;;;;;5.80;5.30;;;;;;;-128.00;-1.00;-1.00;105624;1251;1061390;-73
2023/05/16 10:57:16;;;;;;;4.80;4.40;;;;;;;-128.00;-1.00;-1.00;105756;1251;1055756;-74
2023/05/16 10:59:46;;;;;;;6.30;5.00;;;;;;;-128.00;-1.00;-1.00;105788;1251;1060312;-74
2023/05/16 11:02:22;;;;;;;5.10;4.70;;;;;;;-128.00;-1.00;-1.00;105736;1251;1044054;-74
2023/05/16 11:04:53;;;;;;;6.00;5.40;;;;;;;-128.00;-1.00;-1.00;105762;1251;1046511;-74
2023/05/16 11:07:22;;;;;;;5.80;5.30;;;;;;;-128.00;-1.00;-1.00;105764;1251;1062072;-74
2023/05/16 11:10:08;;;;;;;5.70;5.00;;;;;;;-128.00;-1.00;-1.00;105750;1251;1004127;-74
2023/05/16 11:12:49;;;;;;;6.20;5.60;;;;;;;-128.00;-1.00;-1.00;105733;1251;1058851;-74
2023/05/16 11:15:27;;;;;;;5.50;4.80;;;;;;;-128.00;-1.00;-1.00;105753;1253;1046008;-74
2023/05/16 11:18:12;;;;;;;5.50;5.00;;;;;;;-128.00;-1.00;-1.00;105778;1253;1046115;-74
2023/05/16 11:20:40;;;;;;;5.50;5.00;;;;;;;-128.00;-1.00;-1.00;105766;1251;1060915;-74